createdAt,value
2023-11-28T00:01:35.601Z,98779.15
2023-11-28T00:04:03.410Z,98782.94
2023-11-28T00:06:30.783Z,98787.08
2023-11-28T00:08:58.184Z,98789.80
2023-11-28T00:11:25.640Z,98790.35
2023-11-28T00:13:53.161Z,98789.85
2023-11-28T00:16:21.153Z,98793.77
2023-11-28T00:18:49.618Z,98798.15
2023-11-28T00:21:17.270Z,98797.79
2023-11-28T00:23:44.685Z,98799.83
2023-11-28T00:26:12.102Z,98804.27
2023-11-28T00:28:43.882Z,98802.04
2023-11-28T00:31:11.294Z,98804.20
2023-11-28T00:33:38.838Z,98804.09
2023-11-28T00:36:06.544Z,98807.12
2023-11-28T00:38:33.987Z,98809.64
2023-11-28T00:41:01.644Z,98808.95
2023-11-28T00:43:29.173Z,98810.48
2023-11-28T00:45:56.705Z,98815.77
2023-11-28T00:48:24.130Z,98816.92
2023-11-28T00:50:51.877Z,98822.20
2023-11-28T00:53:19.336Z,98820.42
2023-11-28T00:55:46.813Z,98820.04
2023-11-28T00:58:14.190Z,98819.65
2023-11-28T01:00:41.690Z,98817.39
2023-11-28T01:03:09.202Z,98823.02
2023-11-28T01:05:37.120Z,98830.02
2023-11-28T01:08:04.677Z,98827.23
2023-11-28T01:10:32.080Z,98831.41
2023-11-28T01:12:59.479Z,98833.38
2023-11-28T01:15:27.551Z,98835.66
2023-11-28T01:17:55.071Z,98844.77
2023-11-28T01:20:22.619Z,98847.23
2023-11-28T01:22:50.099Z,98846.06
2023-11-28T01:25:17.497Z,98844.03
2023-11-28T01:27:45.152Z,98845.61
2023-11-28T01:30:14.026Z,98849.27
2023-11-28T01:32:41.486Z,98844.31
2023-11-28T01:35:09.685Z,98838.04
2023-11-28T01:37:37.719Z,98838.20
2023-11-28T01:40:05.499Z,98839.89
2023-11-28T01:42:33.557Z,98846.23
2023-11-28T01:45:01.252Z,98844.08
2023-11-28T01:47:28.672Z,98843.83
2023-11-28T01:49:56.043Z,98838.14
2023-11-28T01:52:23.536Z,98837.63
2023-11-28T01:54:50.991Z,98841.97
2023-11-28T01:57:18.343Z,98844.63
2023-11-28T01:59:45.720Z,98842.91
2023-11-28T02:02:13.158Z,98842.05
2023-11-28T02:04:40.771Z,98842.86
2023-11-28T02:07:08.149Z,98841.27
2023-11-28T02:09:36.434Z,98846.16
2023-11-28T02:12:04.230Z,98847.35
2023-11-28T02:14:31.695Z,98854.73
2023-11-28T02:17:00.164Z,98863.13
2023-11-28T02:19:27.843Z,98865.58
2023-11-28T02:21:55.249Z,98869.92
2023-11-28T02:24:22.611Z,98868.21
2023-11-28T02:26:49.921Z,98872.71
2023-11-28T02:29:17.325Z,98876.67
2023-11-28T02:31:44.723Z,98877.40
2023-11-28T02:34:12.076Z,98883.74
2023-11-28T02:36:39.524Z,98887.06
2023-11-28T02:39:07.017Z,98886.95
2023-11-28T02:41:34.483Z,98889.73
2023-11-28T02:44:03.265Z,98884.64
2023-11-28T02:46:31.761Z,98884.63
2023-11-28T02:48:59.219Z,98880.11
2023-11-28T02:51:26.667Z,98876.22
2023-11-28T02:53:54.069Z,98879.22
2023-11-28T02:56:21.560Z,98879.58
2023-11-28T02:58:49.077Z,98880.77
2023-11-28T03:01:16.458Z,98880.41
2023-11-28T03:03:43.894Z,98874.30
2023-11-28T03:06:11.415Z,98883.02
2023-11-28T03:08:38.731Z,98882.91
2023-11-28T03:11:06.534Z,98886.60
2023-11-28T03:13:34.048Z,98885.77
2023-11-28T03:16:03.294Z,98883.59
2023-11-28T03:18:30.969Z,98889.81
2023-11-28T03:20:58.289Z,98899.30
2023-11-28T03:23:25.753Z,98904.09
2023-11-28T03:25:53.350Z,98904.41
2023-11-28T03:28:20.811Z,98899.39
2023-11-28T03:30:48.269Z,98899.38
2023-11-28T03:33:15.788Z,98902.09
2023-11-28T03:35:43.329Z,98898.69
2023-11-28T03:38:10.952Z,98902.83
2023-11-28T03:40:38.371Z,98899.77
2023-11-28T03:43:06.034Z,98906.27
2023-11-28T03:45:33.404Z,98915.84
2023-11-28T03:48:00.799Z,98919.85
2023-11-28T03:50:28.839Z,98920.73
2023-11-28T03:52:56.772Z,98926.23
2023-11-28T03:55:24.288Z,98927.91
2023-11-28T03:57:52.024Z,98926.83
2023-11-28T04:00:19.445Z,98928.98
2023-11-28T04:02:46.910Z,98931.69
2023-11-28T04:05:14.421Z,98936.00
2023-11-28T04:07:41.882Z,98942.02
2023-11-28T04:10:09.512Z,98946.68
2023-11-28T04:12:36.879Z,98953.70
2023-11-28T04:15:05.567Z,98960.50
2023-11-28T04:17:33.208Z,98954.42
2023-11-28T04:20:00.764Z,98957.47
2023-11-28T04:22:28.169Z,98956.05
2023-11-28T04:24:56.916Z,98959.62
2023-11-28T04:27:24.721Z,98959.90
2023-11-28T04:29:52.510Z,98961.45
2023-11-28T04:32:21.172Z,98963.37
2023-11-28T04:34:49.003Z,98961.58
2023-11-28T04:37:16.446Z,98959.95
2023-11-28T04:39:46.490Z,98969.54
2023-11-28T04:42:13.977Z,98972.92
2023-11-28T04:44:41.452Z,98979.35
2023-11-28T04:47:08.960Z,98981.80
2023-11-28T04:49:36.590Z,98980.77
2023-11-28T04:52:05.339Z,98982.81
2023-11-28T04:54:34.278Z,98987.09
2023-11-28T04:57:01.802Z,98987.10
2023-11-28T04:59:29.183Z,98994.74
2023-11-28T05:01:56.677Z,99000.34
2023-11-28T05:04:24.253Z,98997.70
2023-11-28T05:06:51.692Z,98999.21
2023-11-28T05:09:19.474Z,99001.24
2023-11-28T05:11:47.472Z,99003.80
2023-11-28T05:14:15.816Z,99006.66
2023-11-28T05:16:51.380Z,99006.58
2023-11-28T05:19:21.894Z,99006.25
2023-11-28T05:21:49.700Z,99011.94
2023-11-28T05:24:17.252Z,99014.72
2023-11-28T05:26:45.664Z,99016.26
2023-11-28T05:29:13.064Z,99014.94
2023-11-28T05:31:40.832Z,99016.60
2023-11-28T05:34:08.402Z,99018.13
2023-11-28T05:36:35.886Z,99026.73
2023-11-28T05:39:04.582Z,99033.13
2023-11-28T05:41:32.000Z,99034.35
2023-11-28T05:43:59.698Z,99035.34
2023-11-28T05:46:27.274Z,99038.03
2023-11-28T05:48:55.277Z,99037.94
2023-11-28T05:51:22.947Z,99037.15
2023-11-28T05:53:50.733Z,99038.91
2023-11-28T05:56:18.873Z,99043.27
2023-11-28T05:58:46.732Z,99044.21
2023-11-28T06:01:17.639Z,99045.81
2023-11-28T06:03:46.691Z,99043.52
2023-11-28T06:06:14.253Z,99050.38
2023-11-28T06:08:41.966Z,99051.37
2023-11-28T06:11:10.738Z,99050.23
2023-11-28T06:13:38.119Z,99055.95
2023-11-28T06:16:06.954Z,99055.59
2023-11-28T06:18:39.060Z,99056.77
2023-11-28T06:21:10.583Z,99056.94
2023-11-28T06:23:39.085Z,99057.66
2023-11-28T06:26:06.810Z,99058.73
2023-11-28T06:28:35.883Z,99055.77
2023-11-28T06:31:03.395Z,99054.95
2023-11-28T06:33:30.849Z,99054.19
2023-11-28T06:35:58.676Z,99054.18
2023-11-28T06:38:26.155Z,99050.05
2023-11-28T06:40:54.348Z,99055.17
2023-11-28T06:43:21.798Z,99051.14
2023-11-28T06:45:49.163Z,99050.04
2023-11-28T06:48:16.685Z,99042.86
2023-11-28T06:50:44.101Z,99047.05
2023-11-28T06:53:11.478Z,99046.29
2023-11-28T06:55:38.951Z,99047.41
2023-11-28T06:58:06.425Z,99056.61
2023-11-28T07:00:33.950Z,99055.35
2023-11-28T07:03:02.551Z,99058.60
2023-11-28T07:05:30.039Z,99064.29
2023-11-28T07:07:58.141Z,99068.08
2023-11-28T07:10:25.636Z,99064.88
2023-11-28T07:12:53.080Z,99064.69
2023-11-28T07:15:21.221Z,99061.73
2023-11-28T07:17:49.405Z,99064.85
2023-11-28T07:20:17.132Z,99072.41
2023-11-28T07:22:44.553Z,99073.19
2023-11-28T07:25:12.067Z,99072.77
2023-11-28T07:27:39.481Z,99073.93
2023-11-28T07:30:08.209Z,99072.61
2023-11-28T07:32:35.865Z,99075.44
2023-11-28T07:35:03.513Z,99071.86
2023-11-28T07:37:30.935Z,99073.42
2023-11-28T07:39:58.339Z,99067.90
2023-11-28T07:42:25.747Z,99069.50
2023-11-28T07:44:54.018Z,99067.58
2023-11-28T07:47:21.462Z,99070.75
2023-11-28T07:49:48.895Z,99075.05
2023-11-28T07:52:16.487Z,99077.64
2023-11-28T07:54:44.017Z,99079.58
2023-11-28T07:57:11.463Z,99079.52
2023-11-28T07:59:38.817Z,99080.77
2023-11-28T08:02:06.362Z,99082.27
2023-11-28T08:04:33.991Z,99084.27
2023-11-28T08:07:01.585Z,99080.37
2023-11-28T08:09:29.013Z,99076.48
2023-11-28T08:11:56.349Z,99071.92
2023-11-28T08:14:23.768Z,99065.91
2023-11-28T08:16:51.994Z,99063.88
2023-11-28T08:19:19.572Z,99061.95
2023-11-28T08:21:47.037Z,99057.73
2023-11-28T08:24:14.622Z,99053.91
2023-11-28T08:26:42.025Z,99050.17
2023-11-28T08:29:09.419Z,99050.30
2023-11-28T08:31:36.859Z,99050.44
2023-11-28T08:34:04.287Z,99052.14
2023-11-28T08:36:31.845Z,99055.42
2023-11-28T08:38:59.290Z,99051.29
2023-11-28T08:41:26.885Z,99046.63
2023-11-28T08:43:54.333Z,99043.48
2023-11-28T08:46:23.307Z,99044.16
2023-11-28T08:48:51.887Z,99045.33
2023-11-28T08:51:19.737Z,99040.66
2023-11-28T08:53:47.521Z,99045.59
2023-11-28T08:56:15.326Z,99050.05
2023-11-28T08:58:43.123Z,99052.77
2023-11-28T09:01:10.768Z,99048.13
2023-11-28T09:03:38.741Z,99047.20
2023-11-28T09:06:06.974Z,99043.56
2023-11-28T09:08:35.342Z,99038.52
2023-11-28T09:11:04.238Z,99035.00
2023-11-28T09:13:31.719Z,99037.33
2023-11-28T09:16:06.957Z,99037.41
2023-11-28T09:18:34.679Z,99032.77
2023-11-28T09:21:02.209Z,99029.70
2023-11-28T09:23:29.634Z,99028.37
2023-11-28T09:26:02.720Z,99030.42
2023-11-28T09:28:33.722Z,99027.04
2023-11-28T09:31:01.451Z,99023.54
2023-11-28T09:33:28.858Z,99024.29
2023-11-28T09:35:56.912Z,99027.31
2023-11-28T09:38:24.855Z,99022.77
2023-11-28T09:40:52.828Z,99020.88
2023-11-28T09:43:26.472Z,99011.29
2023-11-28T09:45:58.808Z,99013.48
2023-11-28T09:48:26.987Z,99013.13
2023-11-28T09:50:54.570Z,99009.30
2023-11-28T09:53:27.874Z,99008.84
2023-11-28T09:55:59.606Z,99010.92
2023-11-28T09:58:27.987Z,99006.58
2023-11-28T10:00:57.117Z,99001.66
2023-11-28T10:03:24.603Z,99002.30
2023-11-28T10:05:52.137Z,99000.23
2023-11-28T10:08:19.972Z,98996.58
2023-11-28T10:10:47.552Z,98997.34
2023-11-28T10:13:15.057Z,98992.41
2023-11-28T10:15:43.908Z,98988.52
2023-11-28T10:18:12.208Z,98976.63
2023-11-28T10:20:39.824Z,98965.34
2023-11-28T10:23:07.624Z,98970.59
2023-11-28T10:25:35.119Z,98972.76
2023-11-28T10:28:03.213Z,98966.16
2023-11-28T10:30:30.841Z,98972.36
2023-11-28T10:33:00.067Z,98971.75
2023-11-28T10:35:44.145Z,98975.60
2023-11-28T10:38:20.721Z,98972.59
2023-11-28T10:40:49.097Z,98974.64
2023-11-28T10:43:17.172Z,98974.81
2023-11-28T10:45:45.350Z,98978.67
2023-11-28T10:48:14.018Z,98981.39
2023-11-28T10:50:43.289Z,98986.93
2023-11-28T10:53:12.737Z,98991.35
2023-11-28T10:55:48.524Z,98988.55
2023-11-28T10:58:16.463Z,98991.27
2023-11-28T11:00:46.515Z,98995.80
2023-11-28T11:03:14.488Z,98994.61
2023-11-28T11:05:43.128Z,98993.29
2023-11-28T11:08:10.832Z,98993.48
2023-11-28T11:10:39.945Z,98995.83
2023-11-28T11:13:46.439Z,98993.20
2023-11-28T11:16:56.852Z,98992.00
2023-11-28T11:19:24.414Z,98990.70
2023-11-28T11:21:58.251Z,98985.17
2023-11-28T11:24:26.230Z,98987.73
2023-11-28T11:26:55.743Z,98988.58
2023-11-28T11:29:26.373Z,98981.19
2023-11-28T11:31:56.776Z,98980.87
2023-11-28T11:34:35.359Z,98977.33
2023-11-28T11:37:07.471Z,98972.64
2023-11-28T11:39:39.084Z,98972.81
2023-11-28T11:42:19.938Z,98969.68
2023-11-28T11:44:59.227Z,98968.46
2023-11-28T11:47:32.439Z,98977.94
2023-11-28T11:50:02.463Z,98979.23
2023-11-28T11:52:30.728Z,98978.35
2023-11-28T11:55:05.246Z,98974.33
2023-11-28T11:57:33.106Z,98974.60
2023-11-28T12:00:01.280Z,98974.58
2023-11-28T12:02:39.297Z,98974.79
2023-11-28T12:05:08.354Z,98970.61
2023-11-28T12:07:36.100Z,98964.07
2023-11-28T12:10:09.598Z,98961.69
2023-11-28T12:12:37.225Z,98959.64
2023-11-28T12:15:06.590Z,98959.71
2023-11-28T12:17:35.764Z,98956.13
2023-11-28T12:20:05.734Z,98961.45
2023-11-28T12:22:36.320Z,98959.73
2023-11-28T12:25:03.988Z,98964.06
2023-11-28T12:27:31.644Z,98959.02
2023-11-28T12:30:00.423Z,98954.25
2023-11-28T12:32:28.192Z,98950.65
2023-11-28T12:34:58.236Z,98954.44
2023-11-28T12:37:25.607Z,98959.16
2023-11-28T12:39:54.029Z,98954.67
2023-11-28T12:42:21.450Z,98952.06
2023-11-28T12:44:49.812Z,98946.71
2023-11-28T12:47:17.420Z,98938.42
2023-11-28T12:49:46.938Z,98938.61
2023-11-28T12:52:16.695Z,98930.74
2023-11-28T12:54:44.554Z,98937.31
2023-11-28T12:57:14.505Z,98934.36
2023-11-28T12:59:44.239Z,98928.80
2023-11-28T13:02:11.902Z,98932.08
2023-11-28T13:04:39.327Z,98935.85
2023-11-28T13:07:14.238Z,98935.60
2023-11-28T13:09:49.987Z,98931.12
2023-11-28T13:12:19.203Z,98924.02
2023-11-28T13:14:46.834Z,98921.52
2023-11-28T13:17:15.855Z,98917.84
2023-11-28T13:19:43.745Z,98919.81
2023-11-28T13:22:12.405Z,98916.29
2023-11-28T13:24:39.819Z,98916.04
2023-11-28T13:27:08.292Z,98913.98
2023-11-28T13:29:39.307Z,98912.65
2023-11-28T13:32:07.541Z,98911.84
2023-11-28T13:34:37.110Z,98907.94
2023-11-28T13:37:05.876Z,98907.33
2023-11-28T13:39:33.687Z,98907.73
2023-11-28T13:42:01.117Z,98901.96
2023-11-28T13:44:28.687Z,98900.80
2023-11-28T13:46:56.310Z,98897.21
2023-11-28T13:49:23.854Z,98895.33
2023-11-28T13:51:51.235Z,98895.50
2023-11-28T13:54:18.717Z,98885.54
2023-11-28T13:56:46.143Z,98886.11
2023-11-28T13:59:13.577Z,98884.48
2023-11-28T14:01:41.118Z,98883.54
2023-11-28T14:04:08.600Z,98878.44
2023-11-28T14:06:36.027Z,98875.14
2023-11-28T14:09:07.133Z,98873.08
2023-11-28T14:11:34.753Z,98871.19
2023-11-28T14:14:02.203Z,98867.88
2023-11-28T14:16:30.467Z,98864.21
2023-11-28T14:18:58.016Z,98857.27
2023-11-28T14:21:25.637Z,98852.92
2023-11-28T14:23:52.952Z,98852.02
2023-11-28T14:26:21.390Z,98849.02
2023-11-28T14:28:49.108Z,98847.64
2023-11-28T14:31:18.999Z,98850.53
2023-11-28T14:33:46.561Z,98855.70
2023-11-28T14:36:14.204Z,98853.01
2023-11-28T14:38:41.826Z,98849.53
2023-11-28T14:41:09.751Z,98844.88
2023-11-28T14:43:37.289Z,98843.98
2023-11-28T14:46:04.925Z,98849.13
2023-11-28T14:48:32.861Z,98842.48
2023-11-28T14:51:00.359Z,98838.94
2023-11-28T14:53:27.784Z,98838.60
2023-11-28T14:55:55.464Z,98836.05
2023-11-28T14:58:23.954Z,98836.23
2023-11-28T15:00:52.682Z,98843.63
2023-11-28T15:03:20.423Z,98841.83
2023-11-28T15:05:49.144Z,98845.13
2023-11-28T15:08:16.825Z,98838.84
2023-11-28T15:10:44.411Z,98828.29
2023-11-28T15:13:13.764Z,98821.04
2023-11-28T15:15:43.456Z,98811.52
2023-11-28T15:18:11.123Z,98799.89
2023-11-28T15:20:38.658Z,98797.05
2023-11-28T15:23:08.591Z,98799.42
2023-11-28T15:25:37.376Z,98795.95
2023-11-28T15:28:04.816Z,98794.08
2023-11-28T15:30:32.313Z,98790.69
2023-11-28T15:32:59.862Z,98785.65
2023-11-28T15:35:28.494Z,98779.83
2023-11-28T15:38:01.941Z,98775.27
2023-11-28T15:40:33.109Z,98773.34
2023-11-28T15:43:03.355Z,98770.10
2023-11-28T15:45:33.620Z,98765.34
2023-11-28T15:48:01.931Z,98757.84
2023-11-28T15:50:31.696Z,98757.94
2023-11-28T15:52:59.663Z,98757.30
2023-11-28T15:55:27.246Z,98755.26
2023-11-28T15:57:55.426Z,98745.77
2023-11-28T16:00:22.922Z,98742.02
2023-11-28T16:02:52.303Z,98737.17
2023-11-28T16:05:20.686Z,98741.42
2023-11-28T16:07:50.931Z,98738.09
2023-11-28T16:10:18.455Z,98735.02
2023-11-28T16:12:45.982Z,98730.00
2023-11-28T16:15:14.493Z,98726.80
2023-11-28T16:17:42.317Z,98721.21
2023-11-28T16:20:11.029Z,98720.06
2023-11-28T16:22:38.823Z,98719.02
2023-11-28T16:25:06.832Z,98714.52
2023-11-28T16:27:35.025Z,98709.25
2023-11-28T16:30:04.059Z,98705.71
2023-11-28T16:32:31.645Z,98710.96
2023-11-28T16:34:59.363Z,98715.26
2023-11-28T16:37:26.747Z,98717.79
2023-11-28T16:39:54.634Z,98719.59
2023-11-28T16:42:23.766Z,98728.26
2023-11-28T16:44:52.224Z,98732.80
2023-11-28T16:47:19.980Z,98733.77
2023-11-28T16:49:48.779Z,98734.71
2023-11-28T16:52:16.536Z,98731.69
2023-11-28T16:54:44.813Z,98729.73
2023-11-28T16:57:12.332Z,98727.35
2023-11-28T16:59:40.693Z,98726.84
2023-11-28T17:02:08.673Z,98723.54
2023-11-28T17:04:36.159Z,98719.75
2023-11-28T17:07:04.119Z,98714.96
2023-11-28T17:09:31.630Z,98708.57
2023-11-28T17:11:59.217Z,98712.84
2023-11-28T17:14:26.715Z,98711.02
2023-11-28T17:16:55.959Z,98718.52
2023-11-28T17:19:26.795Z,98716.83
2023-11-28T17:21:57.479Z,98714.77
2023-11-28T17:24:26.201Z,98717.64
2023-11-28T17:26:54.108Z,98716.23
2023-11-28T17:29:21.502Z,98710.30
2023-11-28T17:31:49.504Z,98708.39
2023-11-28T17:34:17.001Z,98701.69
2023-11-28T17:36:44.956Z,98696.18
2023-11-28T17:39:12.628Z,98695.92
2023-11-28T17:41:40.022Z,98693.89
2023-11-28T17:44:08.232Z,98695.47
2023-11-28T17:46:35.944Z,98690.15
2023-11-28T17:49:03.416Z,98680.02
2023-11-28T17:51:30.945Z,98674.80
2023-11-28T17:53:58.474Z,98667.18
2023-11-28T17:56:26.064Z,98667.55
2023-11-28T17:58:53.587Z,98667.36
2023-11-28T18:01:21.545Z,98660.59
2023-11-28T18:03:49.154Z,98658.33
2023-11-28T18:06:16.686Z,98664.34
2023-11-28T18:08:44.220Z,98664.85
2023-11-28T18:11:11.901Z,98657.60
2023-11-28T18:13:40.773Z,98648.08
2023-11-28T18:16:09.113Z,98653.99
2023-11-28T18:18:36.890Z,98649.21
2023-11-28T18:21:15.006Z,98645.29
2023-11-28T18:23:49.184Z,98644.08
2023-11-28T18:26:17.051Z,98636.48
2023-11-28T18:28:45.711Z,98630.55
2023-11-28T18:31:13.301Z,98634.46
2023-11-28T18:33:40.670Z,98632.36
2023-11-28T18:36:09.077Z,98630.27
2023-11-28T18:38:42.756Z,98626.30
2023-11-28T18:41:15.655Z,98623.54
2023-11-28T18:43:43.108Z,98617.87
2023-11-28T18:46:14.588Z,98614.19
2023-11-28T18:48:41.968Z,98603.98
2023-11-28T18:51:16.783Z,98599.04
2023-11-28T18:53:44.802Z,98588.59
2023-11-28T18:56:23.272Z,98586.57
2023-11-28T18:58:51.182Z,98583.59
2023-11-28T19:01:19.669Z,98581.59
2023-11-28T19:03:47.755Z,98579.36
2023-11-28T19:06:15.601Z,98579.71
2023-11-28T19:08:43.894Z,98578.56
2023-11-28T19:11:12.114Z,98579.45
2023-11-28T19:13:39.882Z,98576.50
2023-11-28T19:16:08.380Z,98569.90
2023-11-28T19:18:38.880Z,98563.04
2023-11-28T19:21:06.378Z,98564.29
2023-11-28T19:23:33.886Z,98564.84
2023-11-28T19:26:01.435Z,98568.58
2023-11-28T19:28:28.877Z,98556.79
2023-11-28T19:30:56.479Z,98546.14
2023-11-28T19:33:24.474Z,98540.59
2023-11-28T19:35:51.945Z,98546.17
2023-11-28T19:38:19.438Z,98543.98
2023-11-28T19:40:47.448Z,98541.45
2023-11-28T19:43:14.941Z,98530.33
2023-11-28T19:45:42.408Z,98527.30
2023-11-28T19:48:10.653Z,98520.95
2023-11-28T19:50:38.188Z,98509.39
2023-11-28T19:53:05.649Z,98503.02
2023-11-28T19:55:32.996Z,98492.34
2023-11-28T19:58:00.409Z,98479.74
2023-11-28T20:00:28.848Z,98467.55
2023-11-28T20:02:56.558Z,98452.48
2023-11-28T20:05:24.234Z,98440.27
2023-11-28T20:07:51.638Z,98431.20
2023-11-28T20:10:19.108Z,98424.98
2023-11-28T20:12:46.504Z,98415.30
2023-11-28T20:15:14.969Z,98411.55
2023-11-28T20:17:42.725Z,98403.45
2023-11-28T20:20:10.759Z,98401.14
2023-11-28T20:22:38.962Z,98393.00
2023-11-28T20:25:06.881Z,98384.14
2023-11-28T20:27:34.572Z,98383.46
2023-11-28T20:30:02.151Z,98390.48
2023-11-28T20:32:29.911Z,98391.16
2023-11-28T20:34:57.430Z,98390.48
2023-11-28T20:37:24.850Z,98395.33
2023-11-28T20:39:52.280Z,98386.19
2023-11-28T20:42:20.887Z,98383.05
2023-11-28T20:44:49.066Z,98375.67
2023-11-28T20:47:16.596Z,98371.80
2023-11-28T20:49:44.084Z,98364.00
2023-11-28T20:52:11.658Z,98358.55
2023-11-28T20:54:39.599Z,98354.59
2023-11-28T20:57:07.086Z,98346.86
2023-11-28T20:59:34.557Z,98345.46
2023-11-28T21:02:03.137Z,98345.09
2023-11-28T21:04:32.592Z,98342.64
2023-11-28T21:07:00.329Z,98333.66
2023-11-28T21:09:27.779Z,98327.58
2023-11-28T21:11:55.216Z,98323.32
2023-11-28T21:14:24.070Z,98319.41
2023-11-28T21:16:52.199Z,98313.23
2023-11-28T21:19:19.841Z,98307.80
2023-11-28T21:21:47.506Z,98303.54
2023-11-28T21:24:15.821Z,98303.04
2023-11-28T21:26:44.272Z,98298.73
2023-11-28T21:29:11.773Z,98299.08
2023-11-28T21:31:39.994Z,98291.31
2023-11-28T21:34:07.365Z,98288.48
2023-11-28T21:36:37.826Z,98281.02
2023-11-28T21:39:05.316Z,98274.48
2023-11-28T21:41:32.720Z,98269.77
2023-11-28T21:44:00.866Z,98262.49
2023-11-28T21:46:28.458Z,98256.27
2023-11-28T21:48:58.772Z,98255.29
2023-11-28T21:51:26.317Z,98248.91
2023-11-28T21:53:53.830Z,98240.71
2023-11-28T21:56:21.592Z,98230.34
2023-11-28T21:58:51.766Z,98225.52
2023-11-28T22:01:19.356Z,98215.39
2023-11-28T22:03:47.751Z,98205.80
2023-11-28T22:06:15.153Z,98204.88
2023-11-28T22:08:53.661Z,98197.42
2023-11-28T22:11:24.954Z,98192.11
2023-11-28T22:13:52.869Z,98190.27
2023-11-28T22:16:20.690Z,98186.12
2023-11-28T22:18:48.378Z,98182.11
2023-11-28T22:21:21.788Z,98182.08
2023-11-28T22:23:51.908Z,98171.48
2023-11-28T22:26:19.397Z,98166.39
2023-11-28T22:28:46.848Z,98161.80
2023-11-28T22:31:14.335Z,98157.23
2023-11-28T22:33:42.609Z,98150.56
2023-11-28T22:36:10.227Z,98144.55
2023-11-28T22:38:37.639Z,98136.35
2023-11-28T22:41:05.065Z,98132.86
2023-11-28T22:43:33.169Z,98125.35
2023-11-28T22:46:00.571Z,98116.45
2023-11-28T22:48:27.971Z,98107.19
2023-11-28T22:50:56.484Z,98103.96
2023-11-28T22:53:24.461Z,98094.13
2023-11-28T22:55:52.195Z,98089.95
2023-11-28T22:58:19.570Z,98085.40
2023-11-28T23:00:47.428Z,98079.88
2023-11-28T23:03:14.947Z,98074.20
2023-11-28T23:05:42.452Z,98065.61
2023-11-28T23:08:09.902Z,98052.31
2023-11-28T23:10:37.350Z,98047.96
2023-11-28T23:13:05.009Z,98032.29
2023-11-28T23:15:33.188Z,98026.77
2023-11-28T23:18:00.759Z,98018.45
2023-11-28T23:20:28.165Z,98012.13
2023-11-28T23:22:58.591Z,98001.21
2023-11-28T23:25:26.544Z,97995.38
2023-11-28T23:27:56.293Z,97986.85
2023-11-28T23:30:25.457Z,97979.45
2023-11-28T23:32:53.231Z,97969.36
2023-11-28T23:35:20.902Z,97968.05
2023-11-28T23:37:48.317Z,97953.11
2023-11-28T23:40:15.767Z,97944.35
2023-11-28T23:42:49.429Z,97937.84
2023-11-28T23:45:19.906Z,97935.45
2023-11-28T23:47:49.348Z,97931.58
2023-11-28T23:50:17.212Z,97923.63
2023-11-28T23:52:44.890Z,97917.40
2023-11-28T23:55:12.304Z,97922.73
2023-11-28T23:57:39.642Z,97919.27
